الصفحة الرئيسية
METAR-TAF:

METAR-TAF

مطار :

Bullhead City, أريزونا, الولايات المتحدة

دائرة عرض: 35-09-27N, خط طول: 114-33-34W, ارتفاع: 212 متر

مراقبة الطقس الحالي

تاريخ ووقت الإصدار 26 دقيقة قبل الساعة 02:35UTC
ريح 9 عقدة من الشمال
درجة الحرارة 15°درجة مئوية
الرطوبة 51%
ضغط 1022 hPa
الرؤية: 16.1 كم
سماء صافية

METAR: KIFP 230235Z AUTO 01009KT 10SM CLR 15/05 A3017 RMK AO2

زمن: 20:01 (03:01 UTC)

توقعات

تاريخ ووقت الإصدار 3ساعات و 28 دقيقة قبل الساعة 23:33UTC
التوقعات صالحة من23 الساعة 00 UTC إلى 23 الساعة 24 UTC
ريح 12 عقدة من الشمال
الرؤية: 10 كم
سماء صافية
من 23 الساعة 1700 UTC
ريح 18 عقدة من الشمال تتزايد حتى 25 عقدة
الرؤية: 10 كم
سماء صافية

TAF: KIFP 222333Z 2300/2324 01012KT P6SM SKC FM231700 01018G25KT P6SM SKC

أرصاد الطقس والتوقعات من أكثر من 4000 مطار (تقارير الطقس للمطار METAR والتنبؤ بالطقس بالمطارTAF).

المحطات المتاحة هي النقط الصفراء والحمراء على الخريطة.

حرك المؤشر فوق النقطة لمعرفة اسم المحطة.

ثم انقر لمعرفة أرصاد وتوقعات الطقس.

لتغيير الخارطة: اضغط على الأزرار الخضراء مع رمز الصليب الأسود للتكبير. على الزر الأخضر مع شرطة للتصغير، أو على الأسهم الخضراء للخرائط المجاورة.


METAR-TAF: